sensor_id;sensor_type;location;lat;lon;timestamp;P1;durP1;ratioP1;P2;durP2;ratioP2
9370;SDS011;4725;48.384;8.984;2022-07-11T00:02:07;4.03;;;1.47;;
9370;SDS011;4725;48.384;8.984;2022-07-11T00:04:36;2.37;;;1.60;;
9370;SDS011;4725;48.384;8.984;2022-07-11T00:07:03;3.80;;;1.63;;
9370;SDS011;4725;48.384;8.984;2022-07-11T00:09:30;2.90;;;1.67;;
9370;SDS011;4725;48.384;8.984;2022-07-11T00:11:58;2.93;;;1.20;;
9370;SDS011;4725;48.384;8.984;2022-07-11T00:14:26;1.80;;;1.30;;
9370;SDS011;4725;48.384;8.984;2022-07-11T00:16:53;3.27;;;1.40;;
9370;SDS011;4725;48.384;8.984;2022-07-11T00:19:22;2.20;;;1.40;;
9370;SDS011;4725;48.384;8.984;2022-07-11T00:21:49;6.23;;;1.77;;
9370;SDS011;4725;48.384;8.984;2022-07-11T00:24:17;2.63;;;1.47;;
9370;SDS011;4725;48.384;8.984;2022-07-11T00:26:46;1.50;;;1.17;;
9370;SDS011;4725;48.384;8.984;2022-07-11T00:29:13;6.40;;;1.50;;
9370;SDS011;4725;48.384;8.984;2022-07-11T00:31:40;4.77;;;1.40;;
9370;SDS011;4725;48.384;8.984;2022-07-11T00:34:07;1.50;;;1.30;;
9370;SDS011;4725;48.384;8.984;2022-07-11T00:36:36;3.40;;;1.33;;
9370;SDS011;4725;48.384;8.984;2022-07-11T00:39:03;1.57;;;1.23;;
9370;SDS011;4725;48.384;8.984;2022-07-11T00:41:30;4.10;;;1.50;;
9370;SDS011;4725;48.384;8.984;2022-07-11T00:43:58;1.80;;;1.30;;
9370;SDS011;4725;48.384;8.984;2022-07-11T00:46:27;3.13;;;1.20;;
9370;SDS011;4725;48.384;8.984;2022-07-11T00:48:55;3.33;;;1.40;;
9370;SDS011;4725;48.384;8.984;2022-07-11T00:51:23;3.07;;;1.23;;
9370;SDS011;4725;48.384;8.984;2022-07-11T00:53:52;3.93;;;1.30;;
9370;SDS011;4725;48.384;8.984;2022-07-11T00:56:20;3.50;;;1.23;;
9370;SDS011;4725;48.384;8.984;2022-07-11T00:58:48;4.70;;;1.83;;
9370;SDS011;4725;48.384;8.984;2022-07-11T01:01:16;3.17;;;1.90;;
9370;SDS011;4725;48.384;8.984;2022-07-11T01:03:44;1.83;;;1.10;;
9370;SDS011;4725;48.384;8.984;2022-07-11T01:06:11;3.63;;;1.30;;
9370;SDS011;4725;48.384;8.984;2022-07-11T01:08:39;1.93;;;1.30;;
9370;SDS011;4725;48.384;8.984;2022-07-11T01:11:08;2.67;;;1.23;;
9370;SDS011;4725;48.384;8.984;2022-07-11T01:13:37;7.10;;;1.30;;
9370;SDS011;4725;48.384;8.984;2022-07-11T01:16:09;3.00;;;1.30;;
9370;SDS011;4725;48.384;8.984;2022-07-11T01:18:38;1.43;;;1.33;;
9370;SDS011;4725;48.384;8.984;2022-07-11T01:21:07;4.60;;;1.47;;
9370;SDS011;4725;48.384;8.984;2022-07-11T01:23:42;1.60;;;1.17;;
9370;SDS011;4725;48.384;8.984;2022-07-11T01:26:09;2.30;;;1.43;;
9370;SDS011;4725;48.384;8.984;2022-07-11T01:28:36;1.97;;;1.27;;
9370;SDS011;4725;48.384;8.984;2022-07-11T01:31:03;1.40;;;1.30;;
9370;SDS011;4725;48.384;8.984;2022-07-11T01:33:31;1.80;;;1.10;;
9370;SDS011;4725;48.384;8.984;2022-07-11T01:35:59;1.70;;;1.40;;
9370;SDS011;4725;48.384;8.984;2022-07-11T01:38:26;2.00;;;1.23;;
9370;SDS011;4725;48.384;8.984;2022-07-11T01:40:55;2.10;;;1.23;;
9370;SDS011;4725;48.384;8.984;2022-07-11T01:43:22;3.73;;;1.20;;
9370;SDS011;4725;48.384;8.984;2022-07-11T01:45:50;3.63;;;1.17;;
9370;SDS011;4725;48.384;8.984;2022-07-11T01:48:17;2.17;;;1.10;;
9370;SDS011;4725;48.384;8.984;2022-07-11T01:50:44;1.43;;;1.13;;
9370;SDS011;4725;48.384;8.984;2022-07-11T01:53:11;1.73;;;1.20;;
9370;SDS011;4725;48.384;8.984;2022-07-11T01:55:38;3.27;;;1.20;;
9370;SDS011;4725;48.384;8.984;2022-07-11T01:58:06;1.90;;;1.20;;
9370;SDS011;4725;48.384;8.984;2022-07-11T02:00:33;0.80;;;0.80;;
9370;SDS011;4725;48.384;8.984;2022-07-11T02:03:00;2.33;;;1.10;;
9370;SDS011;4725;48.384;8.984;2022-07-11T02:05:27;1.50;;;1.30;;
9370;SDS011;4725;48.384;8.984;2022-07-11T02:07:54;2.07;;;1.30;;
9370;SDS011;4725;48.384;8.984;2022-07-11T02:10:38;3.93;;;1.20;;
9370;SDS011;4725;48.384;8.984;2022-07-11T02:13:07;2.07;;;1.00;;
9370;SDS011;4725;48.384;8.984;2022-07-11T02:15:35;8.13;;;1.13;;
9370;SDS011;4725;48.384;8.984;2022-07-11T02:18:02;3.40;;;1.80;;
9370;SDS011;4725;48.384;8.984;2022-07-11T02:20:29;2.33;;;1.27;;
9370;SDS011;4725;48.384;8.984;2022-07-11T02:22:57;2.53;;;1.30;;
9370;SDS011;4725;48.384;8.984;2022-07-11T02:25:24;3.03;;;1.30;;
9370;SDS011;4725;48.384;8.984;2022-07-11T02:27:51;2.83;;;1.10;;
9370;SDS011;4725;48.384;8.984;2022-07-11T02:30:19;4.87;;;1.20;;
9370;SDS011;4725;48.384;8.984;2022-07-11T02:32:47;2.10;;;1.20;;
9370;SDS011;4725;48.384;8.984;2022-07-11T02:35:15;9.63;;;2.73;;
9370;SDS011;4725;48.384;8.984;2022-07-11T02:37:41;3.77;;;1.10;;
9370;SDS011;4725;48.384;8.984;2022-07-11T02:40:09;1.90;;;1.30;;
9370;SDS011;4725;48.384;8.984;2022-07-11T02:42:36;4.23;;;1.23;;
9370;SDS011;4725;48.384;8.984;2022-07-11T02:45:03;1.50;;;1.27;;
9370;SDS011;4725;48.384;8.984;2022-07-11T02:47:34;2.27;;;1.10;;
9370;SDS011;4725;48.384;8.984;2022-07-11T02:50:02;2.00;;;1.27;;
9370;SDS011;4725;48.384;8.984;2022-07-11T02:52:29;3.10;;;1.40;;
9370;SDS011;4725;48.384;8.984;2022-07-11T02:54:56;1.83;;;1.10;;
9370;SDS011;4725;48.384;8.984;2022-07-11T02:57:23;1.20;;;1.10;;
9370;SDS011;4725;48.384;8.984;2022-07-11T02:59:50;1.97;;;1.00;;
9370;SDS011;4725;48.384;8.984;2022-07-11T03:02:17;1.20;;;1.10;;
9370;SDS011;4725;48.384;8.984;2022-07-11T03:04:46;5.33;;;1.20;;
9370;SDS011;4725;48.384;8.984;2022-07-11T03:07:13;2.53;;;1.17;;
9370;SDS011;4725;48.384;8.984;2022-07-11T03:09:41;2.50;;;0.87;;
9370;SDS011;4725;48.384;8.984;2022-07-11T03:12:08;1.30;;;0.97;;
9370;SDS011;4725;48.384;8.984;2022-07-11T03:14:35;6.60;;;1.40;;
9370;SDS011;4725;48.384;8.984;2022-07-11T03:17:02;1.30;;;1.17;;
9370;SDS011;4725;48.384;8.984;2022-07-11T03:19:29;2.47;;;1.30;;
9370;SDS011;4725;48.384;8.984;2022-07-11T03:21:58;2.07;;;1.13;;
9370;SDS011;4725;48.384;8.984;2022-07-11T03:24:25;2.27;;;1.63;;
9370;SDS011;4725;48.384;8.984;2022-07-11T03:26:52;1.30;;;1.10;;
9370;SDS011;4725;48.384;8.984;2022-07-11T03:29:18;1.83;;;1.20;;
9370;SDS011;4725;48.384;8.984;2022-07-11T03:31:45;1.43;;;1.10;;
9370;SDS011;4725;48.384;8.984;2022-07-11T03:34:12;1.70;;;1.27;;
9370;SDS011;4725;48.384;8.984;2022-07-11T03:36:39;1.00;;;0.87;;
9370;SDS011;4725;48.384;8.984;2022-07-11T03:39:08;1.47;;;1.20;;
9370;SDS011;4725;48.384;8.984;2022-07-11T03:41:35;1.80;;;1.00;;
9370;SDS011;4725;48.384;8.984;2022-07-11T03:44:02;1.70;;;0.90;;
9370;SDS011;4725;48.384;8.984;2022-07-11T03:46:29;1.27;;;1.00;;
9370;SDS011;4725;48.384;8.984;2022-07-11T03:48:56;2.07;;;1.40;;
9370;SDS011;4725;48.384;8.984;2022-07-11T03:51:23;2.83;;;1.00;;
9370;SDS011;4725;48.384;8.984;2022-07-11T03:53:50;2.83;;;1.20;;
9370;SDS011;4725;48.384;8.984;2022-07-11T03:56:18;2.40;;;1.17;;
9370;SDS011;4725;48.384;8.984;2022-07-11T03:58:47;1.37;;;1.20;;
9370;SDS011;4725;48.384;8.984;2022-07-11T04:01:14;4.00;;;1.13;;
9370;SDS011;4725;48.384;8.984;2022-07-11T04:03:41;2.50;;;1.13;;
9370;SDS011;4725;48.384;8.984;2022-07-11T04:06:08;1.57;;;1.10;;
9370;SDS011;4725;48.384;8.984;2022-07-11T04:08:35;1.87;;;1.10;;
9370;SDS011;4725;48.384;8.984;2022-07-11T04:11:02;1.80;;;1.10;;
9370;SDS011;4725;48.384;8.984;2022-07-11T04:13:31;1.97;;;1.10;;
9370;SDS011;4725;48.384;8.984;2022-07-11T04:15:58;3.30;;;1.10;;
9370;SDS011;4725;48.384;8.984;2022-07-11T04:18:24;1.67;;;1.20;;
9370;SDS011;4725;48.384;8.984;2022-07-11T04:20:51;3.93;;;1.10;;
9370;SDS011;4725;48.384;8.984;2022-07-11T04:23:18;2.43;;;1.10;;
9370;SDS011;4725;48.384;8.984;2022-07-11T04:25:45;5.73;;;1.30;;
9370;SDS011;4725;48.384;8.984;2022-07-11T04:28:12;3.03;;;1.03;;
9370;SDS011;4725;48.384;8.984;2022-07-11T04:30:40;1.57;;;1.30;;
9370;SDS011;4725;48.384;8.984;2022-07-11T04:33:07;2.93;;;1.23;;
9370;SDS011;4725;48.384;8.984;2022-07-11T04:35:34;2.57;;;1.30;;
9370;SDS011;4725;48.384;8.984;2022-07-11T04:38:01;3.07;;;1.30;;
9370;SDS011;4725;48.384;8.984;2022-07-11T04:40:29;1.03;;;1.00;;
9370;SDS011;4725;48.384;8.984;2022-07-11T04:42:56;1.23;;;0.93;;
9370;SDS011;4725;48.384;8.984;2022-07-11T04:45:23;2.20;;;1.20;;
9370;SDS011;4725;48.384;8.984;2022-07-11T04:47:51;1.10;;;1.00;;
9370;SDS011;4725;48.384;8.984;2022-07-11T04:50:18;3.10;;;1.27;;
9370;SDS011;4725;48.384;8.984;2022-07-11T04:52:45;1.80;;;1.10;;
9370;SDS011;4725;48.384;8.984;2022-07-11T04:55:12;0.83;;;0.83;;
9370;SDS011;4725;48.384;8.984;2022-07-11T04:57:39;1.23;;;1.00;;
9370;SDS011;4725;48.384;8.984;2022-07-11T05:00:07;10.10;;;1.43;;
9370;SDS011;4725;48.384;8.984;2022-07-11T05:02:34;3.67;;;1.53;;
9370;SDS011;4725;48.384;8.984;2022-07-11T05:05:02;3.27;;;1.20;;
9370;SDS011;4725;48.384;8.984;2022-07-11T05:07:30;1.67;;;1.00;;
9370;SDS011;4725;48.384;8.984;2022-07-11T05:09:57;3.17;;;1.20;;
9370;SDS011;4725;48.384;8.984;2022-07-11T05:12:24;2.47;;;1.23;;
9370;SDS011;4725;48.384;8.984;2022-07-11T05:14:50;1.17;;;1.07;;
9370;SDS011;4725;48.384;8.984;2022-07-11T05:17:17;2.00;;;1.20;;
9370;SDS011;4725;48.384;8.984;2022-07-11T05:19:44;1.23;;;0.97;;
9370;SDS011;4725;48.384;8.984;2022-07-11T05:22:13;1.37;;;1.20;;
9370;SDS011;4725;48.384;8.984;2022-07-11T05:24:39;1.80;;;1.17;;
9370;SDS011;4725;48.384;8.984;2022-07-11T05:27:07;3.93;;;1.00;;
9370;SDS011;4725;48.384;8.984;2022-07-11T05:29:34;2.83;;;1.30;;
9370;SDS011;4725;48.384;8.984;2022-07-11T05:32:01;3.23;;;1.50;;
9370;SDS011;4725;48.384;8.984;2022-07-11T05:34:29;4.70;;;1.40;;
9370;SDS011;4725;48.384;8.984;2022-07-11T05:36:55;2.30;;;1.40;;
9370;SDS011;4725;48.384;8.984;2022-07-11T05:39:24;2.30;;;1.33;;
9370;SDS011;4725;48.384;8.984;2022-07-11T05:41:51;2.80;;;1.80;;
9370;SDS011;4725;48.384;8.984;2022-07-11T05:44:18;1.90;;;1.00;;
9370;SDS011;4725;48.384;8.984;2022-07-11T05:46:45;1.20;;;1.10;;
9370;SDS011;4725;48.384;8.984;2022-07-11T05:49:12;3.40;;;1.47;;
9370;SDS011;4725;48.384;8.984;2022-07-11T05:51:39;4.27;;;1.60;;
9370;SDS011;4725;48.384;8.984;2022-07-11T05:54:06;4.67;;;1.53;;
9370;SDS011;4725;48.384;8.984;2022-07-11T05:56:34;2.87;;;1.17;;
9370;SDS011;4725;48.384;8.984;2022-07-11T05:59:02;1.93;;;1.20;;
9370;SDS011;4725;48.384;8.984;2022-07-11T06:01:29;2.00;;;1.27;;
9370;SDS011;4725;48.384;8.984;2022-07-11T06:03:57;3.00;;;1.50;;
9370;SDS011;4725;48.384;8.984;2022-07-11T06:06:25;2.77;;;1.10;;
9370;SDS011;4725;48.384;8.984;2022-07-11T06:08:52;1.30;;;1.03;;
9370;SDS011;4725;48.384;8.984;2022-07-11T06:11:19;1.53;;;1.33;;
9370;SDS011;4725;48.384;8.984;2022-07-11T06:13:48;6.03;;;1.50;;
9370;SDS011;4725;48.384;8.984;2022-07-11T06:16:16;3.87;;;1.50;;
9370;SDS011;4725;48.384;8.984;2022-07-11T06:18:44;4.25;;;1.73;;
9370;SDS011;4725;48.384;8.984;2022-07-11T06:21:11;4.07;;;1.93;;
9370;SDS011;4725;48.384;8.984;2022-07-11T06:23:38;1.95;;;1.48;;
9370;SDS011;4725;48.384;8.984;2022-07-11T06:26:07;4.22;;;2.03;;
9370;SDS011;4725;48.384;8.984;2022-07-11T06:28:36;4.15;;;2.40;;
9370;SDS011;4725;48.384;8.984;2022-07-11T06:31:05;2.60;;;2.10;;
9370;SDS011;4725;48.384;8.984;2022-07-11T06:33:32;3.25;;;2.00;;
9370;SDS011;4725;48.384;8.984;2022-07-11T06:36:00;4.40;;;2.13;;
9370;SDS011;4725;48.384;8.984;2022-07-11T06:38:27;2.55;;;1.90;;
9370;SDS011;4725;48.384;8.984;2022-07-11T06:40:54;4.22;;;2.25;;
9370;SDS011;4725;48.384;8.984;2022-07-11T06:43:21;4.57;;;3.22;;
9370;SDS011;4725;48.384;8.984;2022-07-11T06:45:49;3.72;;;3.28;;
9370;SDS011;4725;48.384;8.984;2022-07-11T06:48:18;4.03;;;3.00;;
9370;SDS011;4725;48.384;8.984;2022-07-11T06:50:45;3.58;;;3.22;;
9370;SDS011;4725;48.384;8.984;2022-07-11T06:53:13;3.97;;;3.58;;
9370;SDS011;4725;48.384;8.984;2022-07-11T06:55:40;8.02;;;3.50;;
9370;SDS011;4725;48.384;8.984;2022-07-11T06:58:07;2.92;;;2.53;;
9370;SDS011;4725;48.384;8.984;2022-07-11T07:00:33;4.35;;;3.22;;
9370;SDS011;4725;48.384;8.984;2022-07-11T07:03:00;4.18;;;3.08;;
9370;SDS011;4725;48.384;8.984;2022-07-11T07:05:29;3.40;;;2.50;;
9370;SDS011;4725;48.384;8.984;2022-07-11T07:07:56;2.50;;;2.30;;
9370;SDS011;4725;48.384;8.984;2022-07-11T07:10:23;3.25;;;2.40;;
9370;SDS011;4725;48.384;8.984;2022-07-11T07:12:50;3.42;;;3.13;;
9370;SDS011;4725;48.384;8.984;2022-07-11T07:15:17;3.30;;;2.67;;
9370;SDS011;4725;48.384;8.984;2022-07-11T07:17:44;2.67;;;2.47;;
9370;SDS011;4725;48.384;8.984;2022-07-11T07:20:11;4.07;;;2.72;;
9370;SDS011;4725;48.384;8.984;2022-07-11T07:22:39;3.25;;;2.95;;
9370;SDS011;4725;48.384;8.984;2022-07-11T07:25:07;4.05;;;3.20;;
9370;SDS011;4725;48.384;8.984;2022-07-11T07:27:35;3.55;;;3.22;;
9370;SDS011;4725;48.384;8.984;2022-07-11T07:30:02;5.90;;;3.03;;
9370;SDS011;4725;48.384;8.984;2022-07-11T07:32:30;4.68;;;2.67;;
9370;SDS011;4725;48.384;8.984;2022-07-11T07:34:57;2.80;;;2.22;;
9370;SDS011;4725;48.384;8.984;2022-07-11T07:37:25;2.35;;;2.15;;
9370;SDS011;4725;48.384;8.984;2022-07-11T07:39:54;6.88;;;2.33;;
9370;SDS011;4725;48.384;8.984;2022-07-11T07:42:21;2.10;;;1.85;;
9370;SDS011;4725;48.384;8.984;2022-07-11T07:44:48;3.47;;;2.20;;
9370;SDS011;4725;48.384;8.984;2022-07-11T07:47:15;2.45;;;2.10;;
9370;SDS011;4725;48.384;8.984;2022-07-11T07:49:42;2.30;;;2.10;;
9370;SDS011;4725;48.384;8.984;2022-07-11T07:52:10;2.85;;;2.17;;
9370;SDS011;4725;48.384;8.984;2022-07-11T07:54:37;2.35;;;1.80;;
9370;SDS011;4725;48.384;8.984;2022-07-11T07:57:05;1.88;;;1.73;;
9370;SDS011;4725;48.384;8.984;2022-07-11T07:59:32;2.17;;;1.90;;
9370;SDS011;4725;48.384;8.984;2022-07-11T08:01:59;2.10;;;1.88;;
9370;SDS011;4725;48.384;8.984;2022-07-11T08:04:25;2.67;;;1.60;;
9370;SDS011;4725;48.384;8.984;2022-07-11T08:06:53;3.15;;;1.80;;
9370;SDS011;4725;48.384;8.984;2022-07-11T08:09:20;1.83;;;1.63;;
9370;SDS011;4725;48.384;8.984;2022-07-11T08:11:47;3.40;;;2.03;;
9370;SDS011;4725;48.384;8.984;2022-07-11T08:14:15;2.40;;;1.92;;
9370;SDS011;4725;48.384;8.984;2022-07-11T08:16:42;2.05;;;1.60;;
9370;SDS011;4725;48.384;8.984;2022-07-11T08:19:09;2.15;;;1.70;;
9370;SDS011;4725;48.384;8.984;2022-07-11T08:21:36;2.00;;;1.80;;
9370;SDS011;4725;48.384;8.984;2022-07-11T08:24:04;6.55;;;1.75;;
9370;SDS011;4725;48.384;8.984;2022-07-11T08:26:31;2.10;;;1.63;;
9370;SDS011;4725;48.384;8.984;2022-07-11T08:28:58;1.83;;;1.60;;
9370;SDS011;4725;48.384;8.984;2022-07-11T08:31:27;6.28;;;1.63;;
9370;SDS011;4725;48.384;8.984;2022-07-11T08:33:54;2.38;;;1.60;;
9370;SDS011;4725;48.384;8.984;2022-07-11T08:36:22;1.17;;;1.15;;
9370;SDS011;4725;48.384;8.984;2022-07-11T08:38:49;0.88;;;0.88;;
9370;SDS011;4725;48.384;8.984;2022-07-11T08:41:16;1.20;;;1.10;;
9370;SDS011;4725;48.384;8.984;2022-07-11T08:43:44;1.73;;;1.05;;
9370;SDS011;4725;48.384;8.984;2022-07-11T08:46:12;1.10;;;0.98;;
9370;SDS011;4725;48.384;8.984;2022-07-11T08:48:42;1.77;;;1.05;;
9370;SDS011;4725;48.384;8.984;2022-07-11T08:51:09;3.10;;;1.10;;
9370;SDS011;4725;48.384;8.984;2022-07-11T08:53:38;1.60;;;1.50;;
9370;SDS011;4725;48.384;8.984;2022-07-11T08:56:09;1.80;;;1.70;;
9370;SDS011;4725;48.384;8.984;2022-07-11T08:58:40;1.25;;;1.25;;
9370;SDS011;4725;48.384;8.984;2022-07-11T09:01:09;1.25;;;0.90;;
9370;SDS011;4725;48.384;8.984;2022-07-11T09:03:37;0.90;;;0.90;;
9370;SDS011;4725;48.384;8.984;2022-07-11T09:06:06;1.02;;;1.02;;
9370;SDS011;4725;48.384;8.984;2022-07-11T09:08:33;1.90;;;1.10;;
9370;SDS011;4725;48.384;8.984;2022-07-11T09:11:02;0.90;;;0.90;;
9370;SDS011;4725;48.384;8.984;2022-07-11T09:13:30;1.45;;;1.35;;
9370;SDS011;4725;48.384;8.984;2022-07-11T09:16:00;3.40;;;1.30;;
9370;SDS011;4725;48.384;8.984;2022-07-11T09:18:29;2.67;;;1.10;;
9370;SDS011;4725;48.384;8.984;2022-07-11T09:20:58;1.27;;;1.20;;
9370;SDS011;4725;48.384;8.984;2022-07-11T09:23:45;0.93;;;0.80;;
9370;SDS011;4725;48.384;8.984;2022-07-11T09:26:30;0.82;;;0.80;;
9370;SDS011;4725;48.384;8.984;2022-07-11T09:28:58;1.02;;;0.77;;
9370;SDS011;4725;48.384;8.984;2022-07-11T09:31:26;0.80;;;0.80;;
9370;SDS011;4725;48.384;8.984;2022-07-11T09:33:58;0.68;;;0.60;;
9370;SDS011;4725;48.384;8.984;2022-07-11T09:36:34;0.80;;;0.80;;
9370;SDS011;4725;48.384;8.984;2022-07-11T09:39:07;0.95;;;0.85;;
9370;SDS011;4725;48.384;8.984;2022-07-11T09:41:35;1.08;;;0.98;;
9370;SDS011;4725;48.384;8.984;2022-07-11T09:44:07;0.82;;;0.82;;
9370;SDS011;4725;48.384;8.984;2022-07-11T09:46:35;0.88;;;0.85;;
9370;SDS011;4725;48.384;8.984;2022-07-11T09:49:02;2.97;;;0.80;;
9370;SDS011;4725;48.384;8.984;2022-07-11T09:51:30;1.00;;;0.95;;
9370;SDS011;4725;48.384;8.984;2022-07-11T09:53:58;0.80;;;0.80;;
9370;SDS011;4725;48.384;8.984;2022-07-11T09:56:26;1.30;;;1.08;;
9370;SDS011;4725;48.384;8.984;2022-07-11T09:58:59;0.80;;;0.80;;
9370;SDS011;4725;48.384;8.984;2022-07-11T10:01:26;0.70;;;0.70;;
9370;SDS011;4725;48.384;8.984;2022-07-11T10:03:54;1.58;;;1.00;;
9370;SDS011;4725;48.384;8.984;2022-07-11T10:06:22;0.90;;;0.90;;
9370;SDS011;4725;48.384;8.984;2022-07-11T10:08:50;1.10;;;1.10;;
9370;SDS011;4725;48.384;8.984;2022-07-11T10:11:17;0.95;;;0.93;;
9370;SDS011;4725;48.384;8.984;2022-07-11T10:13:46;1.45;;;1.15;;
9370;SDS011;4725;48.384;8.984;2022-07-11T10:16:15;1.13;;;1.02;;
9370;SDS011;4725;48.384;8.984;2022-07-11T10:18:52;1.00;;;1.00;;
9370;SDS011;4725;48.384;8.984;2022-07-11T10:21:26;1.10;;;1.00;;
9370;SDS011;4725;48.384;8.984;2022-07-11T10:23:59;1.20;;;1.08;;
9370;SDS011;4725;48.384;8.984;2022-07-11T10:26:36;1.20;;;1.10;;
9370;SDS011;4725;48.384;8.984;2022-07-11T10:29:13;1.08;;;0.98;;
9370;SDS011;4725;48.384;8.984;2022-07-11T10:31:45;0.80;;;0.80;;
9370;SDS011;4725;48.384;8.984;2022-07-11T10:34:29;2.83;;;1.17;;
9370;SDS011;4725;48.384;8.984;2022-07-11T10:36:58;2.90;;;1.23;;
9370;SDS011;4725;48.384;8.984;2022-07-11T10:39:26;0.90;;;0.90;;
9370;SDS011;4725;48.384;8.984;2022-07-11T10:41:53;1.30;;;1.10;;
9370;SDS011;4725;48.384;8.984;2022-07-11T10:44:22;1.63;;;1.13;;
9370;SDS011;4725;48.384;8.984;2022-07-11T10:46:50;1.35;;;1.10;;
9370;SDS011;4725;48.384;8.984;2022-07-11T10:49:19;0.90;;;0.90;;
9370;SDS011;4725;48.384;8.984;2022-07-11T10:51:59;1.45;;;1.27;;
9370;SDS011;4725;48.384;8.984;2022-07-11T10:54:34;0.90;;;0.90;;
9370;SDS011;4725;48.384;8.984;2022-07-11T10:57:16;1.73;;;1.30;;
9370;SDS011;4725;48.384;8.984;2022-07-11T10:59:59;1.42;;;1.33;;
9370;SDS011;4725;48.384;8.984;2022-07-11T11:02:27;0.90;;;0.90;;
9370;SDS011;4725;48.384;8.984;2022-07-11T11:04:55;1.45;;;0.88;;
9370;SDS011;4725;48.384;8.984;2022-07-11T11:07:36;1.25;;;1.00;;
9370;SDS011;4725;48.384;8.984;2022-07-11T11:10:07;2.00;;;1.30;;
9370;SDS011;4725;48.384;8.984;2022-07-11T11:15:41;1.10;;;1.00;;
9370;SDS011;4725;48.384;8.984;2022-07-11T11:24:05;1.05;;;1.00;;
9370;SDS011;4725;48.384;8.984;2022-07-11T11:26:50;0.90;;;0.90;;
9370;SDS011;4725;48.384;8.984;2022-07-11T11:29:27;2.03;;;1.17;;
9370;SDS011;4725;48.384;8.984;2022-07-11T11:31:57;1.20;;;0.90;;
9370;SDS011;4725;48.384;8.984;2022-07-11T11:34:26;0.90;;;0.90;;
9370;SDS011;4725;48.384;8.984;2022-07-11T11:36:54;1.23;;;1.17;;
9370;SDS011;4725;48.384;8.984;2022-07-11T11:39:23;1.30;;;1.15;;
9370;SDS011;4725;48.384;8.984;2022-07-11T11:42:00;0.98;;;0.98;;
9370;SDS011;4725;48.384;8.984;2022-07-11T11:44:29;1.00;;;1.00;;
9370;SDS011;4725;48.384;8.984;2022-07-11T11:46:57;0.90;;;0.90;;
9370;SDS011;4725;48.384;8.984;2022-07-11T11:49:25;1.83;;;1.20;;
9370;SDS011;4725;48.384;8.984;2022-07-11T11:51:53;2.15;;;1.13;;
9370;SDS011;4725;48.384;8.984;2022-07-11T11:54:22;1.20;;;1.20;;
9370;SDS011;4725;48.384;8.984;2022-07-11T11:56:50;2.05;;;1.20;;
9370;SDS011;4725;48.384;8.984;2022-07-11T11:59:17;1.20;;;1.10;;
9370;SDS011;4725;48.384;8.984;2022-07-11T12:01:45;6.82;;;1.20;;
9370;SDS011;4725;48.384;8.984;2022-07-11T12:04:15;1.95;;;1.05;;
9370;SDS011;4725;48.384;8.984;2022-07-11T12:06:43;4.20;;;1.15;;
9370;SDS011;4725;48.384;8.984;2022-07-11T12:09:12;1.00;;;1.00;;
9370;SDS011;4725;48.384;8.984;2022-07-11T12:11:41;0.93;;;0.90;;
9370;SDS011;4725;48.384;8.984;2022-07-11T12:14:10;0.90;;;0.90;;
9370;SDS011;4725;48.384;8.984;2022-07-11T12:16:39;1.25;;;1.15;;
9370;SDS011;4725;48.384;8.984;2022-07-11T12:19:13;2.72;;;1.20;;
9370;SDS011;4725;48.384;8.984;2022-07-11T12:21:44;1.30;;;1.20;;
9370;SDS011;4725;48.384;8.984;2022-07-11T12:24:15;1.13;;;1.10;;
9370;SDS011;4725;48.384;8.984;2022-07-11T12:26:43;1.42;;;1.00;;
9370;SDS011;4725;48.384;8.984;2022-07-11T12:29:12;1.23;;;1.00;;
9370;SDS011;4725;48.384;8.984;2022-07-11T12:31:42;1.30;;;1.20;;
9370;SDS011;4725;48.384;8.984;2022-07-11T12:34:10;1.48;;;1.38;;
9370;SDS011;4725;48.384;8.984;2022-07-11T12:36:38;1.95;;;1.25;;
9370;SDS011;4725;48.384;8.984;2022-07-11T12:39:05;1.85;;;1.40;;
9370;SDS011;4725;48.384;8.984;2022-07-11T12:41:33;1.52;;;1.10;;
9370;SDS011;4725;48.384;8.984;2022-07-11T12:44:00;1.58;;;1.15;;
9370;SDS011;4725;48.384;8.984;2022-07-11T12:46:45;1.42;;;1.30;;
9370;SDS011;4725;48.384;8.984;2022-07-11T12:49:13;1.00;;;1.00;;
9370;SDS011;4725;48.384;8.984;2022-07-11T12:51:42;1.15;;;1.05;;
9370;SDS011;4725;48.384;8.984;2022-07-11T12:54:12;1.30;;;1.20;;
9370;SDS011;4725;48.384;8.984;2022-07-11T12:56:39;1.23;;;1.05;;
9370;SDS011;4725;48.384;8.984;2022-07-11T12:59:20;1.20;;;1.20;;
9370;SDS011;4725;48.384;8.984;2022-07-11T13:01:56;1.35;;;1.13;;
9370;SDS011;4725;48.384;8.984;2022-07-11T13:04:34;1.48;;;1.20;;
9370;SDS011;4725;48.384;8.984;2022-07-11T13:10:11;1.25;;;1.15;;
9370;SDS011;4725;48.384;8.984;2022-07-11T13:12:40;1.10;;;1.00;;
9370;SDS011;4725;48.384;8.984;2022-07-11T13:15:08;1.38;;;1.30;;
9370;SDS011;4725;48.384;8.984;2022-07-11T13:17:37;1.25;;;1.17;;
9370;SDS011;4725;48.384;8.984;2022-07-11T13:20:06;2.78;;;1.08;;
9370;SDS011;4725;48.384;8.984;2022-07-11T13:22:36;7.43;;;2.00;;
9370;SDS011;4725;48.384;8.984;2022-07-11T13:25:03;8.25;;;1.70;;
9370;SDS011;4725;48.384;8.984;2022-07-11T13:27:31;1.40;;;1.20;;
9370;SDS011;4725;48.384;8.984;2022-07-11T13:29:59;1.20;;;1.10;;
9370;SDS011;4725;48.384;8.984;2022-07-11T13:32:26;1.58;;;1.33;;
9370;SDS011;4725;48.384;8.984;2022-07-11T13:34:53;1.52;;;1.38;;
9370;SDS011;4725;48.384;8.984;2022-07-11T13:37:20;1.35;;;0.98;;
9370;SDS011;4725;48.384;8.984;2022-07-11T13:39:48;1.45;;;1.30;;
9370;SDS011;4725;48.384;8.984;2022-07-11T13:42:15;1.40;;;1.30;;
9370;SDS011;4725;48.384;8.984;2022-07-11T13:44:42;2.67;;;1.70;;
9370;SDS011;4725;48.384;8.984;2022-07-11T13:47:09;1.10;;;1.05;;
9370;SDS011;4725;48.384;8.984;2022-07-11T13:49:37;0.95;;;0.95;;
9370;SDS011;4725;48.384;8.984;2022-07-11T13:52:04;1.88;;;1.45;;
9370;SDS011;4725;48.384;8.984;2022-07-11T13:54:31;1.27;;;1.17;;
9370;SDS011;4725;48.384;8.984;2022-07-11T13:57:00;1.02;;;1.02;;
9370;SDS011;4725;48.384;8.984;2022-07-11T13:59:27;1.40;;;1.17;;
9370;SDS011;4725;48.384;8.984;2022-07-11T14:01:53;1.73;;;1.15;;
9370;SDS011;4725;48.384;8.984;2022-07-11T14:04:20;1.20;;;1.10;;
9370;SDS011;4725;48.384;8.984;2022-07-11T14:06:47;1.17;;;1.08;;
9370;SDS011;4725;48.384;8.984;2022-07-11T14:09:14;4.95;;;1.38;;
9370;SDS011;4725;48.384;8.984;2022-07-11T14:11:42;1.42;;;1.30;;
9370;SDS011;4725;48.384;8.984;2022-07-11T14:14:10;1.27;;;1.10;;
9370;SDS011;4725;48.384;8.984;2022-07-11T14:16:37;1.33;;;1.23;;
9370;SDS011;4725;48.384;8.984;2022-07-11T14:19:04;1.58;;;1.40;;
9370;SDS011;4725;48.384;8.984;2022-07-11T14:21:32;2.15;;;1.10;;
9370;SDS011;4725;48.384;8.984;2022-07-11T14:23:59;1.77;;;1.10;;
9370;SDS011;4725;48.384;8.984;2022-07-11T14:26:26;1.48;;;1.30;;
9370;SDS011;4725;48.384;8.984;2022-07-11T14:28:54;3.10;;;1.45;;
9370;SDS011;4725;48.384;8.984;2022-07-11T14:31:22;2.97;;;1.52;;
9370;SDS011;4725;48.384;8.984;2022-07-11T14:33:49;1.83;;;1.40;;
9370;SDS011;4725;48.384;8.984;2022-07-11T14:36:18;2.13;;;1.35;;
9370;SDS011;4725;48.384;8.984;2022-07-11T14:38:45;1.10;;;1.10;;
9370;SDS011;4725;48.384;8.984;2022-07-11T14:41:13;1.30;;;1.20;;
9370;SDS011;4725;48.384;8.984;2022-07-11T14:43:41;1.42;;;1.33;;
9370;SDS011;4725;48.384;8.984;2022-07-11T14:46:08;1.40;;;1.30;;
9370;SDS011;4725;48.384;8.984;2022-07-11T14:48:37;0.90;;;0.90;;
9370;SDS011;4725;48.384;8.984;2022-07-11T14:51:04;1.13;;;1.02;;
9370;SDS011;4725;48.384;8.984;2022-07-11T14:53:31;2.05;;;1.33;;
9370;SDS011;4725;48.384;8.984;2022-07-11T14:55:58;18.75;;;2.50;;
9370;SDS011;4725;48.384;8.984;2022-07-11T14:58:25;15.65;;;2.35;;
9370;SDS011;4725;48.384;8.984;2022-07-11T15:00:52;2.88;;;1.40;;
9370;SDS011;4725;48.384;8.984;2022-07-11T15:03:19;4.38;;;1.80;;
9370;SDS011;4725;48.384;8.984;2022-07-11T15:06:05;2.95;;;1.80;;
9370;SDS011;4725;48.384;8.984;2022-07-11T15:08:33;3.08;;;1.52;;
9370;SDS011;4725;48.384;8.984;2022-07-11T15:11:19;2.63;;;1.33;;
9370;SDS011;4725;48.384;8.984;2022-07-11T15:14:03;1.50;;;1.40;;
9370;SDS011;4725;48.384;8.984;2022-07-11T15:16:31;1.50;;;1.40;;
9370;SDS011;4725;48.384;8.984;2022-07-11T15:18:58;2.30;;;1.33;;
9370;SDS011;4725;48.384;8.984;2022-07-11T15:21:27;1.42;;;1.30;;
9370;SDS011;4725;48.384;8.984;2022-07-11T15:23:54;6.63;;;1.55;;
9370;SDS011;4725;48.384;8.984;2022-07-11T15:26:21;1.67;;;1.25;;
9370;SDS011;4725;48.384;8.984;2022-07-11T15:28:49;1.40;;;1.30;;
9370;SDS011;4725;48.384;8.984;2022-07-11T15:31:16;2.10;;;1.60;;
9370;SDS011;4725;48.384;8.984;2022-07-11T15:33:43;1.58;;;1.48;;
9370;SDS011;4725;48.384;8.984;2022-07-11T15:36:10;2.28;;;1.55;;